Sebastopol, CA (95472)

6:02 PM PDT on October 01, 2014 (GMT -0700)
Graton South | Change Station
CLOSE
Current Station
Personal Weather Station
Location: Sebastopol, CA
Elevation: 128 ft
Nearby Weather Stations
Active Advisory: Heat Advisory

Elev 128 ft 38.41 °N, 122.86 °W | Updated 3 minutes ago

Clear
Clear
83.1 °F
Feels Like 81 °F
N
5.9
Wind Variable Wind from SW
Gusts 13.2 mph

Today
High -- | Low -- °F
--% Chance of Precip.
Yesterday
High -- | Low -- °F
Precip. -- in
7:07 AM 6:54 PM
First Quarter, 53% visible
Pressure 29.81 in
Visibility 10.0 miles
Clouds Clear
Heat Index 81 °F
Dew Point 37 °F
Humidity 19%
Rainfall 0.00 in
Snow Depth 0 in , 0 in
UV 2 out of 12
Pollen 3.60 out of 12
Air Quality Not available.
Flu Activity Not available.
METAR KSTS 302353Z 21006KT 10SM CLR 27/11 A2982 RMK AO2 SLP092 60000 T02720111 10289 20172 56020

More Conditions Fewer Conditions

Pressure 29.81 in
Visibility 10.0 miles
Clouds Clear
Heat Index 81 °F
Dew Point 37 °F
Humidity 19%
Rainfall 0.00 in
Snow Depth 0 in , 0 in
UV 2 out of 12
Pollen 3.60 out of 12
Air Quality Not available.
Flu Activity Not available.
METAR KSTS 302353Z 21006KT 10SM CLR 27/11 A2982 RMK AO2 SLP092 60000 T02720111 10289 20172 56020

More Conditions Fewer Conditions

10-Day Weather Forecast

Almanac

Astronomy

Oct. 01, 2014 Rise Set
Actual Time 7:07 AM PDT 6:54 PM PDT
Civil Twilight 6:40 AM PDT 7:20 PM PDT
Nautical Twilight 6:10 AM PDT 7:51 PM PDT
Astronomical Twilight 5:39 AM PDT 8:21 PM PDT
Moon 2:09 PM PDT (10/1) No Moon Set
Length of Visible Light 12h 39m
Length of Day
11h 46m
Tomorrow will be 2m 28s shorter.
First Quarter, 53% of the Moon is Illuminated
Today
First Quarter
Oct 8
Full
Oct 15
Last Quarter
Oct 23
New
Oct 30
First Quarter

Today's Extremes

State Highs State Lows

Community

WunderPhotos

Upload Photos

1,758,109 photos uploaded!

WunderBlogs® & News

Nearby

Air Quality

  Air Quality AQ Index Pollutant
Wednesday Good
PM2.5
Thursday Moderate
OZONE
Friday Moderate
PM2.5
Saturday Moderate
PM2.5
Sunday Moderate
PM2.5
Monday Moderate
PM2.5

Snow Depth

Station Depth Elevation
CSS Lab 1 in 6900 ft
Adin Mountain 0 in 6200 ft
Burnside Lake 0 in 8139 ft
Spratt Creek 0 in 6200 ft

Earthquake Activity

City Distance Mag. Time & Date
Hayfork, California 124 miles 2.5 11:28 PM PDT
2014-09-30
East Foothills, California 87 miles 2.6 3:34 PM PDT
2014-09-30
Minimum magnitude displayed is 2.5.

Coastal Water Temperatures

Place Temperature
Point Reyes, CA 60.1 °F
Arena Cove, CA 55.0 °F
San Francisco, CA 64.0 °F
Richmond, CA 68.0 °F

Nearby Weather Stations